Time;durP1;ratioP1;P1;durP2;ratioP2;P2;SDS_P1;SDS_P2;PMS_P1;PMS_P2;Temp;Humidity;BMP_temperature;BMP_pressure;BME280_temperature;BME280_humidity;BME280_pressure;Samples;Min_cycle;Max_cycle;Signal;HPM_P1;HPM_P2
2021/01/24 00:01:33;;;;;;;26.57;14.68;;;;;;;7.91;74.16;99794.14;1727267;83;21174;-65
2021/01/24 00:04:00;;;;;;;26.68;16.20;;;;;;;7.80;74.00;99795.57;1729363;83;21141;-65
2021/01/24 00:06:28;;;;;;;31.35;18.25;;;;;;;7.75;74.28;99794.75;1728560;83;21592;-65
2021/01/24 00:08:55;;;;;;;29.15;17.02;;;;;;;7.79;74.60;99791.64;1727847;83;21134;-65
2021/01/24 00:11:23;;;;;;;30.62;18.32;;;;;;;7.87;74.78;99781.52;1728440;83;21161;-66
2021/01/24 00:13:51;;;;;;;31.02;17.92;;;;;;;7.95;74.78;99784.51;1730307;83;21213;-65
2021/01/24 00:16:18;;;;;;;29.40;16.20;;;;;;;7.98;74.91;99786.64;1730183;83;21126;-65
2021/01/24 00:18:46;;;;;;;29.40;18.02;;;;;;;7.99;75.21;99793.63;1727413;83;21146;-64
2021/01/24 00:21:13;;;;;;;27.05;16.57;;;;;;;8.13;74.88;99780.34;1692179;84;21186;-65
2021/01/24 00:23:41;;;;;;;26.10;15.88;;;;;;;8.24;74.64;99781.52;1633599;88;21681;-65
2021/01/24 00:26:08;;;;;;;29.52;17.20;;;;;;;8.24;74.49;99784.60;1669904;85;21170;-66
2021/01/24 00:28:36;;;;;;;28.35;16.37;;;;;;;8.29;74.44;99778.86;1668104;85;21155;-66
2021/01/24 00:31:04;;;;;;;26.80;14.53;;;;;;;8.29;74.55;99778.41;1679000;85;21669;-66
2021/01/24 00:33:31;;;;;;;30.85;17.48;;;;;;;8.36;74.44;99781.84;1678206;85;21177;-64
2021/01/24 00:35:59;;;;;;;25.10;14.25;;;;;;;8.45;74.40;99772.52;1658913;85;21120;-65
2021/01/24 00:38:27;;;;;;;23.27;14.43;;;;;;;8.49;73.98;99770.77;1687908;85;21145;-64
2021/01/24 00:40:55;;;;;;;28.65;17.52;;;;;;;8.43;73.81;99766.88;1671685;86;21193;-64
2021/01/24 00:43:22;;;;;;;37.20;16.85;;;;;;;8.43;73.60;99766.88;1671001;85;21605;-65
2021/01/24 00:45:50;;;;;;;28.12;15.98;;;;;;;8.38;73.46;99758.20;1668902;86;21159;-65
2021/01/24 00:48:18;;;;;;;30.30;15.40;;;;;;;8.41;73.43;99756.85;1669960;86;21197;-66
2021/01/24 00:50:45;;;;;;;24.65;13.90;;;;;;;8.35;73.27;99753.88;1706937;84;21176;-66
2021/01/24 00:53:13;;;;;;;25.72;13.70;;;;;;;8.34;73.55;99749.06;1692828;85;21206;-65
2021/01/24 00:55:42;;;;;;;35.08;15.38;;;;;;;8.45;73.68;99746.28;1701560;83;21149;-66
2021/01/24 00:58:10;;;;;;;25.55;13.88;;;;;;;8.52;73.69;99746.23;1687060;84;21242;-67
2021/01/24 01:00:38;;;;;;;27.48;14.40;;;;;;;8.59;73.65;99741.33;1660896;86;21351;-65
2021/01/24 01:03:05;;;;;;;24.75;13.35;;;;;;;8.53;74.20;99739.67;1692304;85;21661;-66
2021/01/24 01:05:33;;;;;;;28.60;15.30;;;;;;;8.63;74.11;99736.47;1666809;86;21171;-66
2021/01/24 01:08:00;;;;;;;29.27;15.35;;;;;;;8.71;73.94;99731.98;1670593;86;21201;-67
2021/01/24 01:10:28;;;;;;;39.63;16.97;;;;;;;8.77;73.89;99736.25;1666343;86;21312;-67
2021/01/24 01:12:56;;;;;;;24.30;13.75;;;;;;;8.82;73.95;99725.25;1687759;84;21183;-65
2021/01/24 01:15:24;;;;;;;26.93;14.45;;;;;;;8.82;74.14;99730.95;1656313;86;21205;-67
2021/01/24 01:17:51;;;;;;;25.72;14.40;;;;;;;8.92;74.10;99718.97;1652563;85;21159;-65
2021/01/24 01:20:19;;;;;;;25.08;13.90;;;;;;;9.01;73.94;99723.66;1665632;85;21650;-66
2021/01/24 01:22:46;;;;;;;26.90;13.68;;;;;;;9.03;74.07;99730.59;1668583;86;21154;-65
2021/01/24 01:25:14;;;;;;;25.30;15.08;;;;;;;9.15;73.85;99729.52;1695199;84;21160;-66
2021/01/24 01:27:41;;;;;;;24.30;12.93;;;;;;;9.21;73.88;99724.17;1683571;84;21166;-66
2021/01/24 01:30:10;;;;;;;27.52;14.10;;;;;;;9.28;73.77;99721.44;1683495;84;21638;-66
2021/01/24 01:32:38;;;;;;;23.70;13.48;;;;;;;9.27;73.91;99725.84;1697771;84;21177;-66
2021/01/24 01:35:08;;;;;;;22.80;12.90;;;;;;;9.36;73.67;99720.86;1691207;85;21182;-67
2021/01/24 01:37:36;;;;;;;26.20;13.10;;;;;;;9.38;73.67;99721.24;1693208;85;21210;-65
2021/01/24 01:40:07;;;;;;;27.52;13.22;;;;;;;9.36;73.66;99715.61;1692101;85;21199;-66
2021/01/24 01:42:35;;;;;;;20.00;11.93;;;;;;;9.40;73.59;99709.84;1656111;86;21132;-66
2021/01/24 01:45:05;;;;;;;21.25;10.80;;;;;;;9.44;73.50;99712.41;1672956;85;21318;-66
2021/01/24 01:47:33;;;;;;;19.50;11.38;;;;;;;9.54;72.93;99710.47;1670776;86;21280;-66
2021/01/24 01:50:01;;;;;;;19.90;12.00;;;;;;;9.53;72.74;99703.02;1669224;86;21186;-65
2021/01/24 01:52:30;;;;;;;22.90;12.03;;;;;;;9.45;72.91;99701.44;1659109;86;21148;-66
2021/01/24 01:54:59;;;;;;;21.48;12.55;;;;;;;9.53;72.85;99700.84;1681583;85;21177;-65
2021/01/24 01:57:26;;;;;;;17.20;11.55;;;;;;;9.53;72.68;99705.64;1662349;86;21194;-66
2021/01/24 01:59:54;;;;;;;21.80;10.75;;;;;;;9.53;72.68;99701.70;1638995;87;21174;-66
2021/01/24 02:03:00;;;;;;;22.73;12.70;;;;;;;9.51;72.58;99696.07;1641261;87;21183;-65
2021/01/24 02:06:04;;;;;;;18.80;11.12;;;;;;;9.55;72.76;99699.06;1670985;85;21166;-65
2021/01/24 02:08:58;;;;;;;22.15;11.83;;;;;;;9.51;72.68;99689.50;1668729;86;21182;-66
2021/01/24 02:11:31;;;;;;;22.22;12.07;;;;;;;9.65;72.33;99693.17;1670595;86;21158;-66
2021/01/24 02:14:13;;;;;;;21.05;11.57;;;;;;;9.61;72.43;99684.50;1641753;87;21313;-66
2021/01/24 02:16:41;;;;;;;25.23;12.95;;;;;;;9.71;72.20;99690.43;1666395;86;21295;-66
2021/01/24 02:19:14;;;;;;;20.08;11.25;;;;;;;9.61;72.45;99684.50;1668381;86;21155;-66
2021/01/24 02:21:41;;;;;;;17.00;10.60;;;;;;;9.54;72.80;99685.50;1645021;86;21193;-65
2021/01/24 02:24:11;;;;;;;20.55;11.10;;;;;;;9.52;72.64;99682.89;1670856;86;21158;-66
2021/01/24 02:27:03;;;;;;;18.90;9.80;;;;;;;9.50;72.68;99687.31;1668425;86;21194;-66
2021/01/24 02:29:42;;;;;;;21.82;11.38;;;;;;;9.51;72.60;99686.88;1666822;86;21196;-66
2021/01/24 02:32:09;;;;;;;17.57;10.03;;;;;;;9.53;72.67;99683.77;1670524;86;21118;-66
2021/01/24 02:34:37;;;;;;;17.48;9.98;;;;;;;9.54;72.59;99685.50;1641256;87;21188;-66
2021/01/24 02:37:05;;;;;;;26.60;11.65;;;;;;;9.59;72.57;99685.41;1639787;87;21178;-66
2021/01/24 02:39:33;;;;;;;23.62;10.60;;;;;;;9.54;72.43;99684.19;1654866;86;21351;-66
2021/01/24 02:42:01;;;;;;;17.23;9.73;;;;;;;9.64;72.38;99682.24;1647579;87;21190;-66
2021/01/24 02:44:28;;;;;;;18.17;9.13;;;;;;;9.60;72.27;99681.88;1659227;84;21166;-66
2021/01/24 02:46:56;;;;;;;18.85;9.50;;;;;;;9.65;72.22;99685.29;1691360;84;21530;-66
2021/01/24 02:49:28;;;;;;;17.07;9.45;;;;;;;9.63;72.28;99677.45;1669911;86;21224;-66
2021/01/24 02:51:55;;;;;;;17.92;9.50;;;;;;;9.62;72.19;99678.78;1671232;86;21170;-66
2021/01/24 02:54:23;;;;;;;26.20;9.95;;;;;;;9.62;72.04;99679.66;1622868;87;21415;-66
2021/01/24 02:56:51;;;;;;;14.53;9.40;;;;;;;9.70;71.91;99679.96;1616230;89;21349;-66
2021/01/24 02:59:19;;;;;;;17.48;10.30;;;;;;;9.72;71.83;99673.77;1652139;86;21312;-66
2021/01/24 03:01:48;;;;;;;17.23;8.73;;;;;;;9.73;71.89;99682.06;1650895;86;21187;-66
2021/01/24 03:04:15;;;;;;;19.25;10.10;;;;;;;9.64;72.12;99675.24;1644650;86;21179;-65
2021/01/24 03:06:44;;;;;;;21.40;9.95;;;;;;;9.65;72.02;99670.84;1667038;86;21150;-66
2021/01/24 03:09:12;;;;;;;24.52;11.28;;;;;;;9.65;72.26;99668.21;1667750;86;21237;-66
2021/01/24 03:11:43;;;;;;;28.07;10.23;;;;;;;9.67;72.15;99659.42;1667313;86;21166;-66
2021/01/24 03:14:20;;;;;;;20.15;9.53;;;;;;;9.75;71.95;99661.00;1693296;84;21234;-66
2021/01/24 03:16:49;;;;;;;21.93;9.95;;;;;;;9.74;71.93;99665.84;1707469;83;21158;-65
2021/01/24 03:19:20;;;;;;;20.23;9.40;;;;;;;9.80;71.86;99657.83;1672942;86;21303;-65
2021/01/24 03:21:48;;;;;;;19.87;10.43;;;;;;;9.81;71.75;99648.62;1691176;84;21116;-67
2021/01/24 03:24:17;;;;;;;15.48;9.90;;;;;;;9.82;71.60;99652.98;1689538;84;21347;-65
2021/01/24 03:26:45;;;;;;;23.75;11.68;;;;;;;9.79;71.49;99659.61;1673028;86;21181;-65
2021/01/24 03:29:14;;;;;;;22.87;11.25;;;;;;;9.94;71.42;99648.34;1695804;84;21163;-65
2021/01/24 03:31:42;;;;;;;18.80;10.45;;;;;;;9.94;71.18;99650.53;1697068;84;21187;-65
2021/01/24 03:34:21;;;;;;;14.90;8.65;;;;;;;9.96;70.97;99650.05;1707653;84;21193;-65
2021/01/24 03:36:51;;;;;;;22.22;10.28;;;;;;;9.98;70.97;99646.06;1713338;83;21589;-65
2021/01/24 03:39:19;;;;;;;17.80;8.63;;;;;;;10.03;70.85;99644.66;1668311;84;21171;-66
2021/01/24 03:41:46;;;;;;;14.85;9.43;;;;;;;10.08;70.75;99639.70;1693619;84;21614;-66
2021/01/24 03:44:14;;;;;;;19.98;9.35;;;;;;;10.15;70.47;99635.63;1713987;84;21309;-65
2021/01/24 03:46:42;;;;;;;21.93;10.15;;;;;;;10.10;70.56;99642.32;1714456;84;21629;-65
2021/01/24 03:49:10;;;;;;;18.77;9.93;;;;;;;10.21;70.36;99640.76;1707319;84;21114;-65
2021/01/24 03:51:40;;;;;;;16.42;9.20;;;;;;;10.21;70.32;99649.97;1706173;83;21309;-66
2021/01/24 03:54:08;;;;;;;17.62;8.95;;;;;;;10.23;70.33;99638.49;1712289;84;21194;-66
2021/01/24 03:56:35;;;;;;;21.55;9.85;;;;;;;10.30;70.06;99653.70;1712845;84;21285;-65
2021/01/24 03:59:03;;;;;;;16.15;9.18;;;;;;;10.37;69.86;99648.73;1713052;84;21302;-66
2021/01/24 04:01:31;;;;;;;17.30;9.53;;;;;;;10.40;69.65;99643.86;1668233;86;21353;-66
2021/01/24 04:03:59;;;;;;;22.17;9.68;;;;;;;10.46;69.36;99638.45;1668117;86;21316;-66
2021/01/24 04:06:26;;;;;;;23.30;10.10;;;;;;;10.48;69.16;99639.29;1669542;84;21338;-65
2021/01/24 04:08:53;;;;;;;15.60;8.33;;;;;;;10.46;69.11;99644.16;1673709;84;21501;-66
2021/01/24 04:11:21;;;;;;;14.33;8.63;;;;;;;10.42;69.35;99636.80;1707649;84;21203;-65
2021/01/24 04:13:48;;;;;;;15.60;8.90;;;;;;;10.39;69.30;99643.45;1672836;86;21192;-66
2021/01/24 04:16:16;;;;;;;17.10;9.58;;;;;;;10.37;69.16;99640.83;1695561;84;21143;-65
2021/01/24 04:18:44;;;;;;;20.92;9.08;;;;;;;10.34;69.25;99636.08;1713273;83;21198;-66
2021/01/24 04:21:11;;;;;;;17.95;9.50;;;;;;;10.33;69.20;99640.92;1661508;86;21198;-65
2021/01/24 04:23:39;;;;;;;15.05;9.03;;;;;;;10.32;68.97;99628.67;1666206;86;21365;-65
2021/01/24 04:26:07;;;;;;;17.87;8.83;;;;;;;10.37;68.88;99626.36;1667191;86;21328;-65
2021/01/24 04:28:34;;;;;;;12.88;8.03;;;;;;;10.43;68.81;99629.75;1667835;86;21541;-65
2021/01/24 04:31:02;;;;;;;15.78;7.70;;;;;;;10.43;68.69;99623.17;1668160;86;21316;-65
2021/01/24 04:33:29;;;;;;;18.80;8.63;;;;;;;10.44;68.76;99622.28;1667070;86;21344;-65
2021/01/24 04:35:57;;;;;;;16.12;8.40;;;;;;;10.41;68.65;99618.81;1707966;84;21303;-65
2021/01/24 04:38:27;;;;;;;17.35;8.98;;;;;;;10.44;68.37;99614.38;1669999;86;21150;-65
2021/01/24 04:40:54;;;;;;;22.22;8.80;;;;;;;10.53;68.40;99627.33;1668596;86;21590;-65
2021/01/24 04:43:22;;;;;;;11.78;7.90;;;;;;;10.55;68.38;99618.95;1672999;84;21166;-66
2021/01/24 04:45:50;;;;;;;18.00;9.05;;;;;;;10.52;68.12;99619.90;1696135;84;21127;-65
2021/01/24 04:48:17;;;;;;;16.77;9.43;;;;;;;10.58;68.11;99627.23;1681987;84;21193;-64
2021/01/24 04:50:45;;;;;;;13.78;8.28;;;;;;;10.53;68.11;99616.37;1707550;84;21273;-65
2021/01/24 04:53:12;;;;;;;16.35;8.48;;;;;;;10.55;68.00;99627.72;1677869;84;21193;-66
2021/01/24 04:55:41;;;;;;;18.73;9.90;;;;;;;10.53;68.00;99629.52;1680264;84;21184;-65
2021/01/24 04:58:08;;;;;;;15.35;8.38;;;;;;;10.52;68.00;99626.91;1668704;85;21618;-65
2021/01/24 05:00:35;;;;;;;14.50;7.47;;;;;;;10.60;67.89;99631.55;1680676;85;21184;-65
2021/01/24 05:03:04;;;;;;;20.25;9.33;;;;;;;10.61;67.90;99636.34;1663283;86;21196;-65
2021/01/24 05:05:31;;;;;;;18.80;9.03;;;;;;;10.60;67.92;99626.28;1665492;86;21223;-65
2021/01/24 05:08:00;;;;;;;15.78;8.68;;;;;;;10.62;67.96;99629.74;1660624;86;21190;-65
2021/01/24 05:10:29;;;;;;;15.20;7.92;;;;;;;10.66;67.83;99632.71;1703804;84;21178;-65
2021/01/24 05:12:58;;;;;;;14.60;8.20;;;;;;;10.69;67.66;99630.44;1690714;84;21158;-65
2021/01/24 05:15:27;;;;;;;15.35;8.63;;;;;;;10.77;67.51;99632.44;1654643;86;21338;-65
2021/01/24 05:17:57;;;;;;;15.58;8.65;;;;;;;10.68;67.68;99625.64;1651348;86;21566;-65
2021/01/24 05:20:27;;;;;;;17.70;8.35;;;;;;;10.73;67.50;99633.41;1662358;86;21192;-65
2021/01/24 05:22:59;;;;;;;19.65;8.33;;;;;;;10.73;67.53;99622.03;1682422;84;21605;-65
2021/01/24 05:25:29;;;;;;;18.40;9.10;;;;;;;10.67;67.66;99622.60;1681283;84;21172;-65
2021/01/24 05:27:57;;;;;;;15.70;9.13;;;;;;;10.66;67.69;99621.30;1687620;84;21166;-65
2021/01/24 05:30:32;;;;;;;15.85;9.78;;;;;;;10.61;67.80;99616.60;1688854;84;21157;-65
2021/01/24 05:33:00;;;;;;;15.68;8.38;;;;;;;10.57;67.87;99625.03;1685655;84;21119;-65
2021/01/24 05:35:28;;;;;;;22.20;9.38;;;;;;;10.53;68.06;99625.58;1641178;87;21137;-64
2021/01/24 05:37:56;;;;;;;16.23;8.25;;;;;;;10.56;68.03;99631.20;1676432;84;21155;-64
2021/01/24 05:40:24;;;;;;;19.20;8.13;;;;;;;10.56;68.03;99625.50;1652270;86;21194;-66
2021/01/24 05:42:52;;;;;;;16.77;8.33;;;;;;;10.58;68.00;99629.40;1653187;86;21340;-66
2021/01/24 05:45:20;;;;;;;14.68;7.65;;;;;;;10.54;68.13;99635.20;1658774;86;21628;-66
2021/01/24 05:47:48;;;;;;;14.83;8.58;;;;;;;10.53;68.25;99636.09;1684178;84;21166;-66
2021/01/24 05:50:16;;;;;;;18.32;9.13;;;;;;;10.55;68.30;99625.52;1704392;84;21604;-65
2021/01/24 05:52:49;;;;;;;15.35;7.65;;;;;;;10.60;68.21;99630.23;1703932;84;21599;-65
2021/01/24 05:55:33;;;;;;;13.38;7.70;;;;;;;10.64;68.10;99624.42;1709032;84;21628;-65
2021/01/24 05:58:20;;;;;;;19.25;8.68;;;;;;;10.74;67.90;99627.72;1690750;84;21190;-65
2021/01/24 06:00:50;;;;;;;15.90;8.45;;;;;;;10.79;67.75;99625.37;1635831;88;21182;-64
2021/01/24 06:03:19;;;;;;;14.00;8.25;;;;;;;10.76;67.85;99620.64;1686264;84;21269;-64
2021/01/24 06:05:47;;;;;;;20.00;8.68;;;;;;;10.82;67.72;99627.05;1711234;84;21300;-64
2021/01/24 06:08:15;;;;;;;16.73;8.78;;;;;;;10.86;67.57;99627.38;1714833;84;21602;-64
2021/01/24 06:10:44;;;;;;;13.30;7.62;;;;;;;10.88;67.49;99623.41;1714809;84;21183;-65
2021/01/24 06:13:28;;;;;;;19.50;7.95;;;;;;;10.79;67.61;99620.57;1641890;86;21171;-65
2021/01/24 06:16:12;;;;;;;17.07;9.00;;;;;;;10.73;67.74;99614.98;1664806;86;21186;-65
2021/01/24 06:18:48;;;;;;;19.48;9.45;;;;;;;10.67;67.96;99613.83;1665807;86;21289;-64
2021/01/24 06:21:20;;;;;;;17.90;9.78;;;;;;;10.67;67.97;99611.19;1666143;86;21340;-64
2021/01/24 06:23:57;;;;;;;22.73;13.00;;;;;;;10.66;67.99;99606.39;1666000;86;21596;-64
2021/01/24 06:26:25;;;;;;;21.25;11.22;;;;;;;10.68;67.96;99602.39;1699774;84;21168;-64
2021/01/24 06:28:57;;;;;;;26.48;12.90;;;;;;;10.61;68.16;99601.69;1641109;86;21202;-65
2021/01/24 06:31:25;;;;;;;25.72;11.43;;;;;;;10.58;68.31;99608.34;1677718;84;21594;-64
2021/01/24 06:33:53;;;;;;;20.10;9.30;;;;;;;10.56;68.46;99598.31;1672094;84;21154;-64
2021/01/24 06:36:20;;;;;;;15.83;8.70;;;;;;;10.57;68.43;99602.67;1668537;86;21159;-64
2021/01/24 06:38:55;;;;;;;17.60;8.80;;;;;;;10.58;68.42;99603.09;1668065;86;21175;-64
2021/01/24 06:41:46;;;;;;;18.30;8.78;;;;;;;10.60;68.45;99608.33;1664756;86;21503;-64
2021/01/24 06:44:36;;;;;;;14.25;7.83;;;;;;;10.62;68.38;99608.69;1695068;84;21154;-64
2021/01/24 06:47:40;;;;;;;15.08;7.58;;;;;;;10.67;68.23;99611.19;1714589;83;21168;-64
2021/01/24 06:50:44;;;;;;;15.88;8.25;;;;;;;10.65;68.37;99607.73;1712598;83;21216;-63
2021/01/24 06:53:21;;;;;;;16.05;7.70;;;;;;;10.70;68.32;99610.68;1713324;84;21626;-64
2021/01/24 06:55:55;;;;;;;13.93;8.53;;;;;;;10.71;68.37;99612.84;1713088;84;21628;-64
2021/01/24 06:58:51;;;;;;;15.98;9.00;;;;;;;10.75;68.32;99617.13;1708794;83;21143;-64
2021/01/24 07:01:30;;;;;;;12.25;7.50;;;;;;;10.74;68.37;99616.72;1668304;86;21163;-63
2021/01/24 07:04:30;;;;;;;17.52;8.78;;;;;;;10.71;68.51;99616.80;1669006;86;21328;-63
2021/01/24 07:07:01;;;;;;;15.18;8.68;;;;;;;10.77;68.35;99608.75;1703202;83;21142;-63
2021/01/24 07:09:41;;;;;;;14.47;8.38;;;;;;;10.84;68.26;99615.59;1696584;84;21158;-63
2021/01/24 07:12:09;;;;;;;14.70;8.90;;;;;;;10.91;68.19;99618.07;1668760;86;21186;-63
2021/01/24 07:14:45;;;;;;;13.83;8.50;;;;;;;10.90;68.36;99612.39;1668041;84;21578;-64
2021/01/24 07:17:14;;;;;;;14.03;8.63;;;;;;;11.04;68.07;99604.97;1673683;84;21191;-66
2021/01/24 07:19:52;;;;;;;12.78;7.55;;;;;;;11.06;68.14;99612.84;1696471;84;21448;-65
2021/01/24 07:22:25;;;;;;;19.45;8.60;;;;;;;11.20;67.90;99609.40;1698289;84;21600;-65
2021/01/24 07:24:53;;;;;;;17.23;9.23;;;;;;;11.17;67.91;99613.44;1668453;86;21204;-64
2021/01/24 07:27:26;;;;;;;14.47;8.50;;;;;;;11.24;67.94;99612.80;1669121;86;21143;-64
2021/01/24 07:29:54;;;;;;;16.37;8.68;;;;;;;11.37;67.64;99607.61;1626080;86;21183;-65
2021/01/24 07:32:23;;;;;;;19.05;9.78;;;;;;;11.37;67.49;99616.84;1639842;87;21222;-64
2021/01/24 07:34:55;;;;;;;16.25;8.75;;;;;;;11.48;67.36;99615.68;1667900;84;21173;-65
2021/01/24 07:37:23;;;;;;;15.43;8.40;;;;;;;11.34;67.70;99616.92;1657605;86;21162;-64
2021/01/24 07:39:52;;;;;;;15.98;9.25;;;;;;;11.33;67.97;99621.77;1697357;83;21179;-65
2021/01/24 07:42:19;;;;;;;24.82;9.55;;;;;;;11.39;67.87;99616.77;1668091;86;21162;-65
2021/01/24 07:44:47;;;;;;;19.05;10.05;;;;;;;11.49;67.68;99620.01;1660423;86;21174;-65
2021/01/24 07:47:15;;;;;;;18.90;8.80;;;;;;;11.55;67.55;99622.48;1668746;84;21177;-67
2021/01/24 07:49:43;;;;;;;17.40;10.10;;;;;;;11.53;67.56;99624.29;1667974;86;21366;-65
2021/01/24 07:52:11;;;;;;;15.55;9.93;;;;;;;11.61;67.40;99619.67;1670917;84;21277;-65
2021/01/24 07:54:40;;;;;;;14.80;9.25;;;;;;;11.62;67.49;99629.77;1668682;86;21162;-65
2021/01/24 07:57:09;;;;;;;15.38;8.78;;;;;;;11.63;67.35;99627.08;1697277;84;21156;-66
2021/01/24 07:59:37;;;;;;;21.30;11.57;;;;;;;11.64;67.35;99630.59;1684483;83;21192;-64
2021/01/24 08:02:05;;;;;;;18.00;9.33;;;;;;;11.66;67.33;99623.04;1711633;82;21557;-64
2021/01/24 08:04:36;;;;;;;18.02;9.45;;;;;;;11.75;67.03;99635.96;1660116;86;21591;-63
2021/01/24 08:07:07;;;;;;;19.92;10.10;;;;;;;11.77;67.12;99637.69;1660167;86;21184;-61
2021/01/24 08:09:36;;;;;;;15.95;9.58;;;;;;;11.81;67.06;99636.22;1664533;85;21604;-65
2021/01/24 08:12:10;;;;;;;15.35;9.20;;;;;;;11.79;67.18;99630.59;1663286;84;21597;-65
2021/01/24 08:14:38;;;;;;;18.15;9.35;;;;;;;11.75;67.40;99642.98;1660058;86;21560;-65
2021/01/24 08:17:08;;;;;;;18.15;8.40;;;;;;;11.85;67.25;99631.27;1662835;86;21679;-66
2021/01/24 08:19:37;;;;;;;18.05;8.85;;;;;;;11.91;67.11;99634.20;1668006;85;21180;-65
2021/01/24 08:22:05;;;;;;;16.65;9.23;;;;;;;11.87;67.05;99627.29;1661862;85;21611;-65
2021/01/24 08:24:33;;;;;;;17.12;9.70;;;;;;;11.83;67.16;99629.61;1662795;85;21928;-65
2021/01/24 08:27:01;;;;;;;17.98;9.20;;;;;;;11.87;67.18;99632.56;1662184;86;21342;-64
2021/01/24 08:29:35;;;;;;;16.05;9.55;;;;;;;11.88;67.14;99634.29;1668259;85;21540;-66
2021/01/24 08:32:05;;;;;;;17.42;8.98;;;;;;;11.84;67.35;99624.27;1651671;85;21595;-65
2021/01/24 08:34:34;;;;;;;15.83;9.73;;;;;;;11.81;67.71;99632.27;1719974;83;21158;-66
2021/01/24 08:37:04;;;;;;;15.98;9.93;;;;;;;11.84;68.01;99626.06;1690141;85;21161;-66
2021/01/24 08:39:32;;;;;;;18.32;10.88;;;;;;;11.87;68.03;99627.29;1712695;83;21180;-65
2021/01/24 08:42:05;;;;;;;18.27;11.18;;;;;;;11.88;68.13;99627.23;1725837;83;21107;-66
2021/01/24 08:44:34;;;;;;;20.85;11.12;;;;;;;11.80;68.70;99621.31;1724125;83;21575;-65
2021/01/24 08:47:06;;;;;;;15.68;11.45;;;;;;;11.86;68.92;99615.86;1715566;82;21415;-65
2021/01/24 08:49:34;;;;;;;20.68;12.68;;;;;;;11.96;68.96;99619.08;1724226;83;21572;-66
2021/01/24 08:52:03;;;;;;;18.60;10.43;;;;;;;12.05;68.96;99614.88;1724341;83;21074;-66
2021/01/24 08:54:34;;;;;;;27.80;17.23;;;;;;;12.04;69.25;99616.26;1718855;82;21184;-66
2021/01/24 08:57:14;;;;;;;22.95;13.93;;;;;;;12.02;69.23;99607.06;1740892;82;21062;-66
2021/01/24 08:59:54;;;;;;;24.70;12.95;;;;;;;12.01;69.32;99610.61;1722715;82;21177;-66
2021/01/24 09:02:37;;;;;;;23.45;14.33;;;;;;;11.96;69.19;99611.64;1730145;82;21087;-66
2021/01/24 09:05:10;;;;;;;20.52;12.78;;;;;;;12.09;68.83;99607.75;1724707;83;21078;-66
2021/01/24 09:07:46;;;;;;;20.23;11.57;;;;;;;12.01;68.98;99613.72;1724175;83;21039;-65
2021/01/24 09:10:32;;;;;;;20.62;11.93;;;;;;;11.99;68.73;99613.74;1724003;82;21160;-65
2021/01/24 09:13:02;;;;;;;20.62;11.97;;;;;;;11.98;68.75;99615.94;1724771;83;21106;-62
2021/01/24 09:15:32;;;;;;;27.62;12.78;;;;;;;11.93;68.72;99636.78;1697360;83;21126;-60
2021/01/24 09:18:00;;;;;;;16.50;10.88;;;;;;;11.82;68.64;99618.64;1725882;83;21453;-64
2021/01/24 09:20:29;;;;;;;18.73;10.80;;;;;;;11.88;68.58;99610.09;1755345;81;21551;-63
2021/01/24 09:22:57;;;;;;;16.67;10.53;;;;;;;11.90;68.46;99605.63;1732005;81;21196;-64
2021/01/24 09:25:24;;;;;;;25.23;15.05;;;;;;;11.98;68.08;99604.07;1724836;82;21636;-64
2021/01/24 09:27:52;;;;;;;33.38;18.65;;;;;;;11.96;68.08;99600.62;1723487;82;21023;-63
2021/01/24 09:30:20;;;;;;;45.95;25.23;;;;;;;11.96;67.86;99588.75;1723492;82;21103;-64
2021/01/24 09:32:47;;;;;;;47.27;22.45;;;;;;;12.02;67.94;99606.21;1724570;82;21498;-63
2021/01/24 09:35:15;;;;;;;33.42;19.25;;;;;;;12.12;67.71;99589.63;1725261;82;21129;-63
2021/01/24 09:37:43;;;;;;;44.48;26.07;;;;;;;12.14;67.53;99587.34;1755510;82;21079;-64
2021/01/24 09:40:12;;;;;;;35.55;23.32;;;;;;;12.15;67.58;99578.52;1751619;82;21270;-63
2021/01/24 09:42:39;;;;;;;23.42;13.53;;;;;;;12.15;67.69;99582.48;1725771;83;21098;-63
2021/01/24 09:45:09;;;;;;;21.65;13.88;;;;;;;12.17;67.83;99578.48;1724612;82;21205;-64
2021/01/24 09:47:37;;;;;;;19.15;10.10;;;;;;;12.14;67.95;99577.27;1724265;83;21043;-63
2021/01/24 09:50:08;;;;;;;15.60;9.28;;;;;;;12.15;68.21;99571.92;1724247;83;21530;-63
2021/01/24 09:52:36;;;;;;;;;;;;;;;12.33;67.77;99572.26;1728092;83;21034;-65
2021/01/24 09:55:06;;;;;;;15.48;9.68;;;;;;;12.38;67.30;99565.06;1724223;83;20271;-64
2021/01/24 09:57:33;;;;;;;17.05;10.48;;;;;;;12.18;67.72;99557.79;1726370;83;21023;-63
2021/01/24 10:00:04;;;;;;;16.62;9.68;;;;;;;12.18;67.86;99557.31;1709937;82;21169;-64
2021/01/24 10:02:33;;;;;;;18.10;8.65;;;;;;;12.15;68.01;99561.38;1704140;83;21054;-62
2021/01/24 10:05:01;;;;;;;18.32;9.08;;;;;;;12.22;67.87;99552.83;1724068;83;21118;-64
2021/01/24 10:07:29;;;;;;;14.38;9.78;;;;;;;12.18;67.79;99561.75;1724099;83;21082;-63
2021/01/24 10:09:58;;;;;;;14.23;8.83;;;;;;;11.95;68.38;99543.51;1731024;81;21103;-64
2021/01/24 10:12:26;;;;;;;16.32;8.70;;;;;;;12.02;68.36;99537.64;1690098;84;21508;-64
2021/01/24 10:14:53;;;;;;;15.25;9.55;;;;;;;11.96;68.34;99541.28;1679107;84;21137;-64
2021/01/24 10:17:21;;;;;;;15.40;8.80;;;;;;;11.99;68.27;99535.06;1720646;83;21543;-65
2021/01/24 10:19:48;;;;;;;17.02;10.30;;;;;;;11.94;68.45;99536.51;1690532;85;21624;-64
2021/01/24 10:22:16;;;;;;;32.45;19.67;;;;;;;11.92;68.32;99529.13;1677151;85;21187;-63
2021/01/24 10:24:44;;;;;;;24.63;15.85;;;;;;;11.78;68.78;99530.86;1689435;85;21304;-66
2021/01/24 10:27:11;;;;;;;23.42;14.87;;;;;;;11.63;69.33;99531.34;1689538;84;21068;-65
2021/01/24 10:29:41;;;;;;;21.23;13.65;;;;;;;11.60;69.38;99523.06;1679732;83;21584;-65
2021/01/24 10:32:10;;;;;;;17.12;10.88;;;;;;;11.50;70.04;99523.80;1689439;85;21057;-65
2021/01/24 10:34:38;;;;;;;22.25;14.43;;;;;;;11.48;69.94;99516.86;1689675;84;21536;-65
2021/01/24 10:37:05;;;;;;;24.57;15.70;;;;;;;11.41;70.45;99523.63;1677951;84;21122;-66
2021/01/24 10:39:33;;;;;;;19.20;14.60;;;;;;;11.35;71.03;99517.66;1733466;82;21557;-66
2021/01/24 10:42:00;;;;;;;13.50;10.30;;;;;;;11.33;71.32;99516.83;1691665;83;21219;-65
2021/01/24 10:44:28;;;;;;;16.07;9.90;;;;;;;11.33;71.21;99523.42;1718531;83;21280;-65
2021/01/24 10:46:55;;;;;;;14.68;8.65;;;;;;;11.28;71.51;99517.83;1731221;82;21594;-66
2021/01/24 10:49:23;;;;;;;15.38;10.05;;;;;;;11.34;71.26;99512.85;1724061;83;21609;-66
2021/01/24 10:51:51;;;;;;;12.13;8.88;;;;;;;11.33;71.31;99507.61;1724498;82;21030;-66
2021/01/24 10:54:20;;;;;;;13.05;9.03;;;;;;;11.33;71.54;99495.75;1690948;85;21080;-65
2021/01/24 10:56:47;;;;;;;11.43;9.15;;;;;;;11.33;71.58;99504.54;1683562;84;21058;-65
2021/01/24 10:59:15;;;;;;;13.83;10.25;;;;;;;11.29;72.11;99496.31;1714601;83;21165;-66
2021/01/24 11:01:43;;;;;;;14.93;8.78;;;;;;;11.27;72.13;99489.76;1718764;83;21551;-66
2021/01/24 11:04:11;;;;;;;13.80;9.53;;;;;;;11.20;72.78;99491.31;1667010;85;21088;-66
2021/01/24 11:06:38;;;;;;;17.12;9.50;;;;;;;11.13;73.08;99484.90;1705750;83;21124;-66
2021/01/24 11:09:06;;;;;;;14.03;9.20;;;;;;;11.20;72.80;99480.77;1660216;86;21049;-65
2021/01/24 11:11:33;;;;;;;16.45;9.43;;;;;;;11.19;72.77;99490.90;1678046;85;21243;-66
2021/01/24 11:14:01;;;;;;;14.70;10.00;;;;;;;11.24;72.55;99476.70;1726268;82;21114;-65
2021/01/24 11:16:28;;;;;;;17.23;9.85;;;;;;;11.24;72.48;99460.02;1719044;83;21511;-66
2021/01/24 11:18:56;;;;;;;15.35;8.73;;;;;;;11.18;72.77;99464.16;1718962;83;21620;-66
2021/01/24 11:21:23;;;;;;;14.33;9.33;;;;;;;11.23;72.65;99456.98;1719497;83;21585;-65
2021/01/24 11:23:51;;;;;;;16.80;9.35;;;;;;;11.19;72.65;99456.66;1699200;83;21614;-66
2021/01/24 11:26:20;;;;;;;15.98;9.20;;;;;;;11.21;72.57;99453.09;1690633;84;21282;-65
2021/01/24 11:28:47;;;;;;;29.65;15.55;;;;;;;11.37;71.96;99445.58;1678878;85;21453;-65
2021/01/24 11:31:15;;;;;;;17.87;11.05;;;;;;;11.36;72.01;99443.86;1720737;82;21609;-66
2021/01/24 11:33:45;;;;;;;20.12;11.08;;;;;;;11.41;71.91;99441.06;1724716;82;21039;-66
2021/01/24 11:36:13;;;;;;;16.75;10.78;;;;;;;11.36;72.20;99444.30;1719090;83;21159;-66
2021/01/24 11:38:42;;;;;;;16.23;11.65;;;;;;;11.43;71.91;99439.25;1719370;83;21040;-65